Gillette, WY

5:48 PM MDT on July 30, 2016 (GMT -0600)
Gillette-Campbell County | | Change Station
Active Advisory: Severe Thunderstorm Warning Active Notice: Local Storm Report

Elev 4364 ft 44.34 °N, 105.54 °W | Updated 4 minutes ago

Thunderstorm
Thunderstorm
68 °F
Feels Like 68 °F
N
14
Wind Variable Wind from East

Today
High -- | Low -- °F
--% Chance of Precip.
Yesterday
High -- | Low -- °F
Precip. -- in
Pressure 29.84 in
Visibility 10.0 miles
Clouds Scattered Clouds 1600 ft
Scattered Clouds 3000 ft
Dew Point 60 °F
Humidity 76%
Rainfall 0.00 in
Snow Depth Not available.
5:47 AM 8:29 PM
Waning Crescent, 10% visible
SPECI KGCC 302344Z AUTO 08012KT 10SM TS SCT016 SCT030 20/16 A2984 RMK AO2 PK WND 34035/2316 WSHFT 2324 LTG DSNT NE-SE RAB13E41 P0070 T02000156
Pressure 29.84 in
Visibility 10.0 miles
Clouds Scattered Clouds 1600 ft
Scattered Clouds 3000 ft
Dew Point 60 °F
Humidity 76%
Rainfall 0.00 in
Snow Depth Not available.
5:47 AM 8:29 PM
Waning Crescent, 10% visible
SPECI KGCC 302344Z AUTO 08012KT 10SM TS SCT016 SCT030 20/16 A2984 RMK AO2 PK WND 34035/2316 WSHFT 2324 LTG DSNT NE-SE RAB13E41 P0070 T02000156

10-Day Weather Forecast

Almanac

Astronomy

Jul. 30, 2016 Rise Set
Actual Time
Civil Twilight
Nautical Twilight
Astronomical Twilight
Moon
Length of Visible Light
Length of Day
Tomorrow will be .
, % of the Moon is Illuminated

Today's Extremes

State Highs State Lows

Community

WunderPhotos

Upload Photos

1,928,680 photos uploaded!

WunderBlog® & News

Nearby

Air Quality

  Air Quality AQ Index Pollutant
Not available.

Snow Depth

Station Depth Elevation

Earthquake Activity

City Distance Mag. Time & Date
Minimum magnitude displayed is 2.5.

Coastal Water Temperatures

Place Temperature

Stations

Nearby Weather Stations

Station Location Temp. Windchill Dew Point Humidity Wind Precip. Elev Updated Type
                   

Watches & Warnings

Severe Thunderstorm Warning
Issued: 5:31 PM MDT Jul. 30, 2016 – National Weather Service

... A Severe Thunderstorm Warning remains in effect until 545 PM MDT
for east central Campbell County...

At 529 PM MDT... a severe thunderstorm was located 7 miles northeast
of Gillette... moving east at 20 mph.

Hazard... 60 mph wind gusts and nickel size hail.

Source... emergency management. At 520 PM MDT... penny sized hail was
         reported 2 miles north of Gillette.

Impact... expect damage to roofs... siding... and trees.

Locations impacted include...
Gillette and Rozet.

Precautionary/preparedness actions...

For your protection move to an interior room on the lowest floor of a
building.

Torrential rainfall is occurring with this storm... and may lead to
flash flooding. Do not drive your vehicle through flooded roadways.


Lat... Lon 4423 10550 4442 10552 4448 10509 4414 10508
time... Mot... loc 2329z 273deg 19kt 4433 10535

Hail... 0.88in
wind... 60mph


Trimarchi